Flight Track Log - Related Links

Times and Time Zones

All times are in EDT time to prevent confusion due to time zone crossing. See the SWA2169 flight status page for this flight to view local times or setup timezone preferences in your user account.

Time Position Orientation Groundspeed Altitude Reporting Facility
EDT Latitude Longitude Course Direction KTS MPH feet Rate Location/Type
Sat 05:18:43 PM 33.4333 -112.0500 59° Northeast 179 206 2,300  Level Phoenix TRACON
Sat 05:19:49 PM 33.4333 -112.1167 270° West 237 273 4,000 2,143 Climbing Phoenix TRACON
Sat 05:20:49 PM 33.4500 -112.2000 284° West 254 292 6,800 2,500 Climbing Phoenix TRACON
Sat 05:21:49 PM 33.5333 -112.1833 North 302 348 9,000 1,779 Climbing Phoenix TRACON
Sat 05:23:14 PM 33.5714 -112.0636 69° East 334 384 11,100 2,137 Climbing Albuquerque Center
Sat 05:24:00 PM 33.8025 -111.2591 59° Northeast  Level Estimated
Sat 05:24:15 PM 33.5950 -111.9183 79° East 372 428 14,200  Level Albuquerque Center
Sat 05:25:17 PM 33.6133 -111.7936 80° East 383 441 16,400 2,146 Climbing Albuquerque Center
Sat 05:26:18 PM 33.6328 -111.6569 80° East 407 468 18,600 2,066 Climbing Albuquerque Center
Sat 05:27:19 PM 33.6514 -111.5228 81° East 421 484 20,600 1,854 Climbing Albuquerque Center
Sat 05:28:21 PM 33.6719 -111.3794 80° East 437 503 22,400 1,707 Climbing Albuquerque Center
Sat 05:29:22 PM 33.7000 -111.2339 77° East 451 519 24,100 1,561 Climbing Albuquerque Center
Sat 05:30:24 PM 33.7506 -111.0917 67° East 466 536 25,600 1,610 Climbing Albuquerque Center
Sat 05:31:25 PM 33.8144 -110.9144 67° East 481 554 27,400 1,610 Climbing Albuquerque Center
Sat 05:32:27 PM 33.8678 -110.7639 67° East 489 563 28,900 1,317 Climbing Albuquerque Center
Sat 05:33:28 PM 33.9203 -110.6119 67° East 492 566 30,100 1,220 Climbing Albuquerque Center
Sat 05:34:30 PM 33.9756 -110.4569 67° East 500 575 31,400 1,268 Climbing Albuquerque Center
Sat 05:35:31 PM 34.0336 -110.2908 67° East 506 582 32,700 1,220 Climbing Albuquerque Center
Sat 05:36:33 PM 34.0881 -110.1333 67° East 510 587 33,900 1,220 Climbing Albuquerque Center
Sat 05:37:34 PM 34.1431 -109.9772 67° East 510 587 35,200 1,220 Climbing Albuquerque Center
Sat 05:38:36 PM 34.2028 -109.8044 67° East 503 579 36,400 878 Climbing Albuquerque Center
Sat 05:39:37 PM 34.2528 -109.6567 68° East 500 575 37,000 295 Climbing Albuquerque Center
Sat 05:40:38 PM 34.3128 -109.4831 67° East 500 575 37,000  Level Albuquerque Center
Sat 05:41:40 PM 34.3625 -109.3328 68° East 502 578 37,000  Level Albuquerque Center
Sat 05:42:41 PM 34.4128 -109.1847 68° East 501 577 37,000  Level Albuquerque Center
Sat 05:43:43 PM 34.4625 -109.0072 71° East 499 574 37,000  Level Albuquerque Center
Sat 05:44:44 PM 34.5039 -108.8536 72° East 500 575 37,000  Level Albuquerque Center
Sat 05:45:45 PM 34.5533 -108.6756 71° East 500 575 37,000  Level Albuquerque Center
Sat 05:46:47 PM 34.5944 -108.5239 72° East 498 573 37,000  Level Albuquerque Center
Sat 05:47:48 PM 34.6369 -108.3717 71° East 496 571 37,000  Level Albuquerque Center
Sat 05:48:50 PM 34.6950 -108.2197 65° Northeast 503 579 37,000  Level Albuquerque Center
Sat 05:49:51 PM 34.7586 -108.0722 62° Northeast 496 571 37,000  Level Albuquerque Center
Sat 05:50:53 PM 34.8239 -107.9211 62° Northeast 501 577 37,000  Level Albuquerque Center
Sat 05:51:54 PM 34.9003 -107.7411 63° Northeast 500 575 37,000  Level Albuquerque Center
Sat 05:52:56 PM 34.9636 -107.5911 63° Northeast 498 573 37,000  Level Albuquerque Center
Sat 05:53:57 PM 35.0278 -107.4406 62° Northeast 499 574 37,000  Level Albuquerque Center
Sat 05:54:58 PM 35.0922 -107.2903 62° Northeast 498 573 37,000  Level Albuquerque Center
Sat 05:56:00 PM 35.1608 -107.1283 63° Northeast 504 580 37,000  Level Albuquerque Center
Sat 05:57:01 PM 35.2200 -106.9847 63° Northeast 498 573 37,000  Level Albuquerque Center
Sat 05:58:03 PM 35.2903 -106.8172 63° Northeast 496 571 37,000  Level Albuquerque Center
Sat 05:59:04 PM 35.3525 -106.6714 62° Northeast 502 578 37,000  Level Albuquerque Center
Sat 06:00:06 PM 35.4142 -106.5208 63° Northeast 505 581 37,000  Level Albuquerque Center
Sat 06:01:07 PM 35.4772 -106.3681 63° Northeast 504 580 37,000  Level Albuquerque Center
Sat 06:02:09 PM 35.5397 -106.2158 63° Northeast 501 577 37,000  Level Albuquerque Center
Sat 06:03:10 PM 35.6019 -106.0619 64° Northeast 502 578 37,000  Level Albuquerque Center
Sat 06:04:12 PM 35.6775 -105.8772 63° Northeast 503 579 37,000  Level Albuquerque Center
Sat 06:05:13 PM 35.7389 -105.7233 64° Northeast 502 578 37,000  Level Albuquerque Center
Sat 06:06:14 PM 35.8022 -105.5681 63° Northeast 505 581 37,000  Level Albuquerque Center
Sat 06:07:16 PM 35.8586 -105.4206 65° Northeast 500 575 37,000  Level Albuquerque Center
Sat 06:08:17 PM 35.9214 -105.2636 64° Northeast 502 578 37,000  Level Albuquerque Center
Sat 06:09:19 PM 35.9831 -105.1064 64° Northeast 502 578 37,000  Level Albuquerque Center
Sat 06:10:20 PM 36.0553 -104.9239 64° Northeast 501 577 37,000  Level Albuquerque Center
Sat 06:11:22 PM 36.1169 -104.7653 64° Northeast 502 578 37,000  Level Albuquerque Center
Sat 06:12:23 PM 36.1789 -104.6064 64° Northeast 505 581 37,000  Level Albuquerque Center
Sat 06:13:25 PM 36.2403 -104.4475 64° Northeast 505 581 37,000  Level Albuquerque Center
Sat 06:14:26 PM 36.3008 -104.2889 65° Northeast 504 580 37,000  Level Albuquerque Center
Sat 06:15:28 PM 36.3642 -104.1297 64° Northeast 506 582 37,000  Level Albuquerque Center
Sat 06:16:29 PM 36.4253 -103.9719 64° Northeast 504 580 37,000  Level Albuquerque Center
Sat 06:17:31 PM 36.4850 -103.8128 65° Northeast 503 579 37,000  Level Albuquerque Center
Sat 06:18:32 PM 36.5456 -103.6533 65° Northeast 503 579 37,000  Level Albuquerque Center
Sat 06:19:34 PM 36.6047 -103.4947 65° Northeast 504 580 37,000  Level Albuquerque Center
Sat 06:20:35 PM 36.6664 -103.3269 65° Northeast 504 580 37,000  Level Albuquerque Center
Sat 06:21:37 PM 36.7228 -103.1758 65° Northeast 504 580 37,000  Level Albuquerque Center
Sat 06:22:39 PM 36.7892 -102.9978 65° Northeast 508 585 37,000  Level Albuquerque Center
Sat 06:23:40 PM 36.8458 -102.8431 65° Northeast 511 588 37,000  Level Albuquerque Center
Sat 06:24:42 PM 36.9117 -102.6619 66° East 514 592 37,000  Level Albuquerque Center
Sat 06:25:43 PM 36.9708 -102.5044 65° Northeast 506 582 37,000  Level Albuquerque Center
Sat 06:26:45 PM 37.0253 -102.3519 66° East 503 579 37,000  Level Albuquerque Center
Sat 06:27:47 PM 37.0892 -102.1731 66° East 504 580 37,000  Level Albuquerque Center
Sat 06:28:38 PM 37.1342 -102.0450 66° East 503 579 37,000  Level Kansas City Center
Sat 06:29:40 PM 37.1978 -101.8647 66° East 506 582 37,000  Level Kansas City Center
Sat 06:30:42 PM 37.2517 -101.7111 66° East 505 581 37,000  Level Kansas City Center
Sat 06:31:43 PM 37.3156 -101.5322 66° East 503 579 37,000  Level Kansas City Center
Sat 06:32:45 PM 37.3694 -101.3786 66° East 503 579 37,000  Level Kansas City Center
Sat 06:33:47 PM 37.4214 -101.2286 66° East 495 570 37,000  Level Kansas City Center
Sat 06:34:48 PM 37.4819 -101.0550 66° East 489 563 37,000  Level Kansas City Center
Sat 06:35:50 PM 37.5303 -100.9147 66° East 489 563 37,000  Level Kansas City Center
Sat 06:36:52 PM 37.5967 -100.7228 66° East 496 571 37,000  Level Kansas City Center
Sat 06:37:53 PM 37.6519 -100.5642 66° East 493 567 37,000  Level Kansas City Center
Sat 06:38:55 PM 37.7047 -100.4100 67° East 488 562 37,000  Level Kansas City Center
Sat 06:39:57 PM 37.7553 -100.2586 67° East 489 563 37,000  Level Kansas City Center
Sat 06:40:58 PM 37.8150 -100.0808 67° East 493 567 37,000  Level Kansas City Center
Sat 06:42:00 PM 37.8669 -99.9306 66° East 490 564 37,000  Level Kansas City Center
Sat 06:43:01 PM 37.9236 -99.7547 68° East 485 558 37,000  Level Kansas City Center
Sat 06:44:03 PM 37.9744 -99.6033 67° East 487 560 37,000  Level Kansas City Center
Sat 06:45:05 PM 38.0247 -99.4475 68° East 487 560 37,000  Level Kansas City Center
Sat 06:46:06 PM 38.0772 -99.2881 67° East 489 563 37,000  Level Kansas City Center
Sat 06:47:08 PM 38.1278 -99.1272 68° East 490 564 37,000  Level Kansas City Center
Sat 06:48:09 PM 38.1808 -98.9681 67° East 489 563 37,000  Level Kansas City Center
Sat 06:49:11 PM 38.2442 -98.7769 67° East 490 564 37,000  Level Kansas City Center
Sat 06:50:12 PM 38.2950 -98.6169 68° East 484 557 37,000  Level Kansas City Center
Sat 06:51:14 PM 38.3456 -98.4575 68° East 485 558 37,000  Level Kansas City Center
Sat 06:52:15 PM 38.3956 -98.2969 68° East 485 558 37,000  Level Kansas City Center
Sat 06:53:17 PM 38.4481 -98.1331 68° East 483 556 37,000  Level Kansas City Center
Sat 06:54:19 PM 38.4956 -97.9761 69° East 484 557 37,000  Level Kansas City Center
Sat 06:55:20 PM 38.5458 -97.8169 68° East 481 554 37,000  Level Kansas City Center
Sat 06:56:22 PM 38.5953 -97.6569 68° East 482 555 37,000  Level Kansas City Center
Sat 06:57:23 PM 38.6442 -97.4956 69° East 485 558 37,000  Level Kansas City Center
Sat 06:58:25 PM 38.6933 -97.3356 68° East 483 556 37,000  Level Kansas City Center
Sat 06:59:29 PM 38.7511 -97.1439 69° East 481 554 37,000  Level Kansas City Center
Sat 07:00:31 PM 38.7992 -96.9828 69° East 483 556 37,000  Level Kansas City Center
Sat 07:01:33 PM 38.8469 -96.8200 69° East 487 560 37,000  Level Kansas City Center
Sat 07:02:34 PM 38.8983 -96.6583 68° East 488 562 37,000  Level Kansas City Center
Sat 07:03:36 PM 38.9444 -96.4964 70° East 484 557 37,000  Level Kansas City Center
Sat 07:04:37 PM 38.9961 -96.3219 69° East 474 545 37,000  Level Kansas City Center
Sat 07:05:39 PM 39.0383 -96.1694 70° East 474 545 37,000  Level Kansas City Center
Sat 07:06:41 PM 39.0908 -95.9911 69° East 476 548 37,000  Level Kansas City Center
Sat 07:07:42 PM 39.1347 -95.8403 69° East 472 543 37,000  Level Kansas City Center
Sat 07:08:44 PM 39.1844 -95.6692 69° East 458 527 37,000  Level Kansas City Center
Sat 07:09:45 PM 39.2256 -95.5231 70° East 452 520 37,000  Level Kansas City Center
Sat 07:10:47 PM 39.2736 -95.3536 70° East 455 524 37,000  Level Kansas City Center
Sat 07:11:49 PM 39.3164 -95.1992 70° East 456 525 37,000  Level Kansas City Center
Sat 07:12:50 PM 39.3603 -95.0444 70° East 462 532 37,000  Level Kansas City Center
Sat 07:13:52 PM 39.4025 -94.8947 70° East 462 532 37,000  Level Kansas City Center
Sat 07:14:53 PM 39.4525 -94.7175 70° East 470 541 37,000  Level Kansas City Center
Sat 07:15:55 PM 39.4925 -94.5692 71° East 458 527 37,000  Level Kansas City Center
Sat 07:16:56 PM 39.5319 -94.4217 71° East 452 520 37,000  Level Kansas City Center
Sat 07:17:58 PM 39.5792 -94.2497 70° East 454 522 37,000  Level Kansas City Center
Sat 07:18:59 PM 39.6192 -94.1008 71° East 457 526 37,000  Level Kansas City Center
Sat 07:20:01 PM 39.6653 -93.9297 71° East 452 520 37,000  Level Kansas City Center
Sat 07:21:02 PM 39.7047 -93.7833 71° East 450 518 37,000 -195 Level Kansas City Center
Sat 07:22:04 PM 39.7411 -93.6414 72° East 454 522 36,600 -780 Descending Kansas City Center
Sat 07:23:05 PM 39.7872 -93.4550 72° East 456 525 35,400 -780 Descending Kansas City Center
Sat 07:24:07 PM 39.8306 -93.3056 69° East 451 519 35,000 -195 Descending Kansas City Center
Sat 07:25:08 PM 39.8703 -93.1497 72° East 456 525 35,000  Level Kansas City Center
Sat 07:26:10 PM 39.9092 -92.9953 72° East 455 524 35,000  Level Kansas City Center
Sat 07:27:11 PM 39.9483 -92.8394 72° East 454 522 35,000  Level Kansas City Center
Sat 07:28:13 PM 39.9947 -92.6572 72° East 454 522 35,000 -293 Level Kansas City Center
Sat 07:29:14 PM 40.0333 -92.5050 72° East 454 522 34,400 -780 Descending Kansas City Center
Sat 07:30:16 PM 40.0739 -92.3444 72° East 450 518 33,400 -927 Descending Kansas City Center
Sat 07:31:17 PM 40.1103 -92.1978 72° East 459 528 32,500 -927 Descending Kansas City Center
Sat 07:32:19 PM 40.1494 -92.0425 72° East 458 527 31,500 -732 Descending Kansas City Center
Sat 07:33:20 PM 40.1947 -91.8583 72° East 452 520 31,000 -244 Descending Kansas City Center
Sat 07:34:22 PM 40.2333 -91.7028 72° East 454 522 31,000  Level Kansas City Center
Sat 07:35:23 PM 40.2706 -91.5481 72° East 452 520 31,000  Level Kansas City Center
Sat 07:36:24 PM 40.3078 -91.3939 72° East 450 518 31,000  Level Kansas City Center
Sat 07:37:26 PM 40.3433 -91.2475 72° East 449 517 31,000  Level Kansas City Center
Sat 07:38:27 PM 40.3875 -91.0592 73° East 450 518 31,000  Level Kansas City Center
Sat 07:39:06 PM 40.4094 -90.9683 72° East 445 512 31,000  Level Chicago Center
Sat 07:40:08 PM 40.4450 -90.8114 73° East 447 514 31,000  Level Chicago Center
Sat 07:41:09 PM 40.4831 -90.6536 72° East 451 519 31,000 -488 Level Chicago Center
Sat 07:42:11 PM 40.5200 -90.4939 73° East 456 525 30,000 -919 Descending Chicago Center
Sat 07:43:13 PM 40.5583 -90.3331 73° East 459 528 29,100 -1,024 Descending Chicago Center
Sat 07:44:14 PM 40.5969 -90.1447 75° East 466 536 27,900 -1,073 Descending Chicago Center
Sat 07:45:16 PM 40.6356 -89.9925 71° East 447 514 26,900 -1,306 Descending Chicago Center
Sat 07:46:18 PM 40.6672 -89.8397 75° East 439 505 25,200 -2,146 Descending Chicago Center
Sat 07:47:19 PM 40.7142 -89.6997 66° East 430 495 22,500 -2,780 Descending Chicago Center
Sat 07:48:21 PM 40.7847 -89.5422 59° Northeast 424 488 19,500 -2,565 Descending Chicago Center
Sat 07:49:23 PM 40.8453 -89.4106 59° Northeast 420 483 17,200 -1,161 Descending Chicago Center
Sat 07:50:25 PM 40.9006 -89.2833 60° Northeast 406 467 17,100 -48 Descending Chicago Center
Sat 07:51:28 PM 40.9536 -89.1564 61° Northeast 396 456 17,100 -195 Level Chicago Center
Sat 07:52:28 PM 41.0089 -89.0325 59° Northeast 396 456 16,700 -639 Descending Chicago Center
Sat 07:53:30 PM 41.0847 -88.9378 43° Northeast 373 429 15,800 -829 Descending Chicago Center
Sat 07:54:31 PM 41.1761 -88.8136 46° Northeast 391 450 15,000 -1,024 Descending Chicago Center
Sat 07:55:33 PM 41.2503 -88.7139 45° Northeast 383 441 13,700 -1,887 Descending Chicago Center
Sat 07:56:35 PM 41.3244 -88.6158 45° Northeast 378 435 11,100 -1,854 Descending Chicago Center
Sat 07:57:36 PM 41.3864 -88.5108 52° Northeast 365 420 9,900 -537 Descending Chicago Center
Sat 07:58:38 PM 41.4186 -88.3842 71° East 363 418 10,000 -48 Climbing Chicago Center
Sat 07:59:40 PM 41.4475 -88.2667 72° East 337 388 9,800 -927 Descending Chicago Center
Sat 08:00:41 PM 41.4739 -88.1647 71° East 295 339 8,100 -1,561 Descending Chicago Center
Sat 08:01:43 PM 41.5011 -88.0575 71° East 297 342 6,600 -1,500 Descending Chicago Center
Sat 08:02:45 PM 41.5331 -87.9317 71° East 297 342 5,000 -774 Descending Chicago Center
Sat 08:03:47 PM 41.5564 -87.8328 72° East 289 333 5,000  Level Chicago Center
Sat 08:04:48 PM 41.5828 -87.7575 65° Northeast 254 292 5,000 -488 Level Chicago Center
Sat 08:05:50 PM 41.6283 -87.7103 38° Northeast 224 258 4,000 -968 Descending Chicago Center
Sat 08:06:52 PM 41.6789 -87.6781 25° Northeast 210 242 3,000 -732 Descending Chicago Center
Sat 08:07:53 PM 41.7333 -87.6564 17° North 206 237 2,500 -244 Descending Chicago Center
Sat 08:08:55 PM 41.7967 -87.6339 15° North 202 232 2,500 -194 Level Chicago Center
Sat 08:09:57 PM 41.8406 -87.6661 331° Northwest 196 226 2,100 -435 Descending Chicago Center
Sat 08:10:59 PM 41.8211 -87.7078 238° Southwest 160 184 1,600 -537 Descending Chicago Center
Sat 08:12:00 PM 41.7889 -87.7467 222° Southwest 150 173 1,000 -590 Descending Chicago Center

Login

Don't have an account? Register now (free) for customized features, flight alerts, and more!